createdAt,value
2023-03-18T00:00:02.659Z,4.4
2023-03-18T00:03:02.703Z,4.5
2023-03-18T00:06:02.677Z,4.4
2023-03-18T00:09:02.656Z,4.4
2023-03-18T00:12:02.665Z,4.4
2023-03-18T00:15:02.679Z,4.4
2023-03-18T00:18:02.665Z,4.4
2023-03-18T00:21:02.669Z,4.3
2023-03-18T00:24:02.697Z,4.4
2023-03-18T00:27:02.667Z,4.2
2023-03-18T00:30:02.715Z,4.2
2023-03-18T00:33:02.712Z,4.1
2023-03-18T00:36:02.710Z,4.1
2023-03-18T00:39:02.675Z,4.2
2023-03-18T00:42:02.702Z,4.2
2023-03-18T00:45:02.700Z,4.2
2023-03-18T00:48:02.686Z,4.2
2023-03-18T00:51:02.688Z,4.2
2023-03-18T00:54:02.691Z,4.3
2023-03-18T00:57:02.692Z,4.3
2023-03-18T01:00:02.729Z,4.3
2023-03-18T01:03:02.697Z,4.4
2023-03-18T01:06:02.700Z,4.5
2023-03-18T01:09:02.729Z,4.5
2023-03-18T01:12:02.711Z,4.5
2023-03-18T01:15:02.926Z,4.5
2023-03-18T01:18:02.737Z,4.5
2023-03-18T01:21:02.721Z,4.5
2023-03-18T01:24:02.720Z,4.5
2023-03-18T01:27:02.727Z,4.5
2023-03-18T01:30:02.749Z,4.6
2023-03-18T01:33:02.778Z,4.6
2023-03-18T01:36:02.851Z,4.6
2023-03-18T01:39:02.745Z,4.6
2023-03-18T01:42:02.750Z,4.5
2023-03-18T01:45:02.756Z,4.7
2023-03-18T01:48:02.751Z,4.7
2023-03-18T01:51:02.759Z,4.5
2023-03-18T01:54:02.779Z,4.4
2023-03-18T01:57:02.758Z,4.4
2023-03-18T02:00:02.767Z,4.3
2023-03-18T02:03:02.761Z,4.3
2023-03-18T02:06:02.772Z,4.2
2023-03-18T02:09:02.774Z,4.2
2023-03-18T02:12:02.801Z,4.2
2023-03-18T02:15:02.800Z,4.2
2023-03-18T02:18:02.794Z,4.2
2023-03-18T02:21:02.824Z,4.3
2023-03-18T02:24:02.789Z,4.2
2023-03-18T02:27:02.790Z,4.2
2023-03-18T02:30:02.832Z,4.3
2023-03-18T02:33:02.907Z,4.3
2023-03-18T02:36:02.846Z,4.3
2023-03-18T02:39:02.805Z,4.3
2023-03-18T02:42:02.818Z,4.3
2023-03-18T02:45:02.837Z,4.3
2023-03-18T02:48:02.849Z,4.3
2023-03-18T02:51:02.837Z,4.3
2023-03-18T02:54:02.872Z,4.3
2023-03-18T02:57:02.849Z,4.3
2023-03-18T03:00:02.861Z,4.3
2023-03-18T03:03:02.965Z,4.3
2023-03-18T03:06:02.972Z,4.3
2023-03-18T03:09:02.867Z,4.3
2023-03-18T03:12:02.868Z,4.3
2023-03-18T03:15:02.896Z,4.3
2023-03-18T03:18:02.878Z,4.3
2023-03-18T03:21:02.880Z,4.3
2023-03-18T03:24:02.913Z,4.3
2023-03-18T03:27:02.889Z,4.4
2023-03-18T03:30:02.935Z,4.5
2023-03-18T03:33:02.963Z,4.5
2023-03-18T03:36:03.029Z,4.6
2023-03-18T03:39:02.910Z,4.6
2023-03-18T03:42:03.043Z,4.7
2023-03-18T03:45:02.938Z,4.7
2023-03-18T03:48:02.924Z,4.7
2023-03-18T03:51:02.946Z,4.8
2023-03-18T03:54:02.940Z,4.8
2023-03-18T03:57:02.939Z,4.8
2023-03-18T04:00:02.999Z,4.9
2023-03-18T04:03:02.980Z,4.9
2023-03-18T04:06:02.950Z,4.9
2023-03-18T04:09:02.957Z,4.9
2023-03-18T04:12:02.956Z,5
2023-03-18T04:15:02.998Z,5
2023-03-18T04:18:02.991Z,5.1
2023-03-18T04:21:02.980Z,5.1
2023-03-18T04:24:02.988Z,5.2
2023-03-18T04:27:02.987Z,5.2
2023-03-18T04:30:03.004Z,5.2
2023-03-18T04:33:03.088Z,5.3
2023-03-18T04:36:03.091Z,5.3
2023-03-18T04:39:03.046Z,5.3
2023-03-18T04:42:03.021Z,5.4
2023-03-18T04:45:03.037Z,5.4
2023-03-18T04:48:03.032Z,5.4
2023-03-18T04:51:03.035Z,5.4
2023-03-18T04:54:03.067Z,5.4
2023-03-18T04:57:03.047Z,5.5
2023-03-18T05:00:03.076Z,5.5
2023-03-18T05:03:03.065Z,5.5
2023-03-18T05:06:03.080Z,5.5
2023-03-18T05:09:03.076Z,5.7
2023-03-18T05:12:03.116Z,5.7
2023-03-18T05:15:03.119Z,5.7
2023-03-18T05:18:03.110Z,5.7
2023-03-18T05:21:03.124Z,5.8
2023-03-18T05:24:03.122Z,5.8
2023-03-18T05:27:03.142Z,5.9
2023-03-18T05:30:03.170Z,5.9
2023-03-18T05:33:03.165Z,5.9
2023-03-18T05:36:03.190Z,6
2023-03-18T05:39:03.160Z,6.1
2023-03-18T05:42:03.168Z,6.2
2023-03-18T05:45:03.182Z,6.3
2023-03-18T05:48:03.201Z,6.3
2023-03-18T05:51:03.183Z,6.3
2023-03-18T05:54:03.193Z,6.3
2023-03-18T05:57:03.211Z,6.4
2023-03-18T06:00:03.216Z,6.5
2023-03-18T06:03:03.259Z,6.6
2023-03-18T06:06:03.248Z,6.6
2023-03-18T06:09:03.224Z,6.6
2023-03-18T06:12:03.232Z,6.6
2023-03-18T06:15:03.256Z,6.6
2023-03-18T06:18:03.246Z,6.6
2023-03-18T06:21:03.247Z,6.6
2023-03-18T06:24:03.292Z,6.6
2023-03-18T06:27:03.256Z,6.7
2023-03-18T06:30:03.277Z,6.8
2023-03-18T06:33:03.320Z,6.7
2023-03-18T06:36:03.382Z,6.7
2023-03-18T06:39:03.281Z,6.7
2023-03-18T06:42:03.303Z,6.7
2023-03-18T06:45:03.307Z,6.7
2023-03-18T06:48:03.295Z,6.7
2023-03-18T06:51:03.358Z,6.7
2023-03-18T06:54:03.302Z,6.7
2023-03-18T06:57:03.307Z,6.8
2023-03-18T07:00:03.349Z,6.8
2023-03-18T07:03:03.311Z,6.9
2023-03-18T07:06:03.314Z,7.1
2023-03-18T07:09:03.318Z,7.3
2023-03-18T07:12:03.331Z,7.6
2023-03-18T07:15:03.347Z,7.7
2023-03-18T07:18:03.354Z,7.8
2023-03-18T07:21:03.332Z,7.9
2023-03-18T07:24:03.343Z,8
2023-03-18T07:27:03.337Z,8.2
2023-03-18T07:30:03.346Z,8.3
2023-03-18T07:33:03.388Z,8.5
2023-03-18T07:36:03.410Z,8.5
2023-03-18T07:39:03.344Z,8.3
2023-03-18T07:42:03.343Z,8.3
2023-03-18T07:45:03.362Z,8.4
2023-03-18T07:48:03.355Z,8.4
2023-03-18T07:51:03.381Z,8.4
2023-03-18T07:54:03.406Z,8.6
2023-03-18T07:57:03.460Z,8.8
2023-03-18T08:00:03.411Z,8.8
2023-03-18T08:03:03.392Z,8.8
2023-03-18T08:06:03.403Z,8.7
2023-03-18T08:09:03.418Z,8.7
2023-03-18T08:12:03.560Z,8.7
2023-03-18T08:15:03.451Z,8.7
2023-03-18T08:18:03.453Z,8.6
2023-03-18T08:21:03.453Z,8.6
2023-03-18T08:24:03.466Z,8.8
2023-03-18T08:27:03.472Z,8.9
2023-03-18T08:30:04.150Z,8.9
2023-03-18T08:33:03.557Z,9
2023-03-18T08:36:03.559Z,9
2023-03-18T08:39:03.524Z,9
2023-03-18T08:42:03.530Z,9.2
2023-03-18T08:45:03.554Z,9.3
2023-03-18T08:48:03.595Z,9.3
2023-03-18T08:51:03.560Z,9.4
2023-03-18T08:54:03.571Z,9.5
2023-03-18T08:57:03.597Z,9.6
2023-03-18T09:00:03.608Z,9.6
2023-03-18T09:03:03.690Z,9.6
2023-03-18T09:06:03.646Z,9.6
2023-03-18T09:09:03.634Z,9.7
2023-03-18T09:12:03.642Z,10
2023-03-18T09:15:03.725Z,9.8
2023-03-18T09:18:11.290Z,9.9
2023-03-18T09:21:03.672Z,10.1
2023-03-18T09:24:04.987Z,10
2023-03-18T09:27:03.713Z,10
2023-03-18T09:30:03.719Z,10
2023-03-18T09:33:03.790Z,10
2023-03-18T09:36:03.777Z,10
2023-03-18T09:39:03.741Z,10.1
2023-03-18T09:42:03.792Z,10.1
2023-03-18T09:45:03.818Z,10.2
2023-03-18T09:48:03.789Z,10.4
2023-03-18T09:51:03.793Z,10.5
2023-03-18T09:54:03.808Z,10.7
2023-03-18T09:57:03.822Z,10.6
2023-03-18T10:00:03.866Z,10.5
2023-03-18T10:03:06.216Z,10.5
2023-03-18T10:06:03.857Z,10.6
2023-03-18T10:09:03.875Z,10.6
2023-03-18T10:12:03.884Z,10.7
2023-03-18T10:15:03.929Z,10.6
2023-03-18T10:18:03.936Z,10.7
2023-03-18T10:21:03.943Z,10.8
2023-03-18T10:24:03.937Z,10.5
2023-03-18T10:27:03.957Z,10.6
2023-03-18T10:30:03.990Z,10.5
2023-03-18T10:33:04.036Z,10.4
2023-03-18T10:36:04.049Z,10.3
2023-03-18T10:39:04.004Z,10.2
2023-03-18T10:42:04.009Z,10.2
2023-03-18T10:45:04.036Z,10.1
2023-03-18T10:48:05.899Z,10.1
2023-03-18T10:51:04.049Z,10.2
2023-03-18T10:54:04.087Z,10.1
2023-03-18T10:57:04.081Z,10.2
2023-03-18T11:00:04.116Z,10.3
2023-03-18T11:03:04.251Z,10.5
2023-03-18T11:06:04.526Z,10.5
2023-03-18T11:09:04.150Z,10.3
2023-03-18T11:12:04.188Z,10.4
2023-03-18T11:15:04.345Z,10.3
2023-03-18T11:18:04.202Z,10.8
2023-03-18T11:21:04.209Z,10.6
2023-03-18T11:24:04.227Z,10.9
2023-03-18T11:27:04.245Z,10.8
2023-03-18T11:30:04.287Z,10.4
2023-03-18T11:33:04.298Z,10.2
2023-03-18T11:36:04.283Z,10.2
2023-03-18T11:39:04.301Z,10.3
2023-03-18T11:42:04.328Z,10
2023-03-18T11:45:04.341Z,9.9
2023-03-18T11:48:04.370Z,9.7
2023-03-18T11:51:04.355Z,10.1
2023-03-18T11:54:04.376Z,9.8
2023-03-18T11:57:04.384Z,9.4
2023-03-18T12:00:04.402Z,9.4
2023-03-18T12:03:04.404Z,9.3
2023-03-18T12:06:04.433Z,9.3
2023-03-18T12:09:04.433Z,9.5
2023-03-18T12:12:04.421Z,9.9
2023-03-18T12:15:04.443Z,10.1
2023-03-18T12:18:04.444Z,9.8
2023-03-18T12:21:04.438Z,9.9
2023-03-18T12:24:04.466Z,9.8
2023-03-18T12:27:04.451Z,10
2023-03-18T12:30:04.467Z,10
2023-03-18T12:33:04.526Z,9.7
2023-03-18T12:36:04.505Z,9.5
2023-03-18T12:39:04.463Z,9.7
2023-03-18T12:42:04.500Z,9.8
2023-03-18T12:45:04.497Z,9.6
2023-03-18T12:48:04.486Z,9.6
2023-03-18T12:51:04.488Z,9.4
2023-03-18T12:54:04.487Z,9.5
2023-03-18T12:57:04.497Z,9.4
2023-03-18T13:00:04.648Z,9.2
2023-03-18T13:03:06.950Z,9.2
2023-03-18T13:06:04.509Z,9.1
2023-03-18T13:09:04.508Z,9.1
2023-03-18T13:12:04.521Z,9
2023-03-18T13:15:04.536Z,8.9
2023-03-18T13:18:04.552Z,8.8
2023-03-18T13:21:04.524Z,8.9
2023-03-18T13:24:04.531Z,9
2023-03-18T13:27:04.541Z,9
2023-03-18T13:30:04.554Z,9.1
2023-03-18T13:33:04.639Z,9
2023-03-18T13:36:04.588Z,9
2023-03-18T13:39:04.565Z,9.1
2023-03-18T13:42:04.560Z,9.1
2023-03-18T13:45:04.574Z,9.1
2023-03-18T13:48:04.562Z,9.1
2023-03-18T13:51:04.571Z,9.2
2023-03-18T13:54:04.599Z,9.2
2023-03-18T13:57:04.585Z,9.2
2023-03-18T14:00:04.588Z,9.2
2023-03-18T14:03:04.600Z,9.3
2023-03-18T14:06:04.595Z,9.3
2023-03-18T14:09:04.592Z,9.3
2023-03-18T14:12:04.620Z,9.4
2023-03-18T14:15:04.615Z,9.3
2023-03-18T14:18:04.605Z,9.3
2023-03-18T14:21:04.638Z,9.1
2023-03-18T14:24:06.370Z,9.2
2023-03-18T14:27:04.632Z,9.2
2023-03-18T14:30:05.604Z,9.1
2023-03-18T14:33:04.679Z,9.2
2023-03-18T14:36:04.679Z,8.8
2023-03-18T14:39:04.638Z,8.6
2023-03-18T14:42:04.643Z,8.9
2023-03-18T14:45:04.674Z,8.8
2023-03-18T14:48:04.679Z,8.7
2023-03-18T14:51:04.657Z,8.8
2023-03-18T14:54:04.666Z,8.7
2023-03-18T14:57:04.672Z,8.8
2023-03-18T15:00:04.683Z,8.7
2023-03-18T15:03:04.754Z,8.7
2023-03-18T15:06:04.709Z,8.7
2023-03-18T15:09:04.704Z,8.7
2023-03-18T15:12:04.682Z,8.7
2023-03-18T15:15:04.700Z,8.7
2023-03-18T15:18:04.698Z,8.6
2023-03-18T15:21:04.705Z,8.5
2023-03-18T15:24:04.736Z,8.5
2023-03-18T15:27:04.712Z,8.6
2023-03-18T15:30:04.860Z,8.6
2023-03-18T15:33:04.818Z,8.7
2023-03-18T15:36:04.800Z,8.8
2023-03-18T15:39:04.732Z,8.8
2023-03-18T15:42:04.784Z,8.8
2023-03-18T15:45:04.751Z,8.8
2023-03-18T15:48:04.758Z,8.8
2023-03-18T15:51:04.755Z,8.8
2023-03-18T15:54:04.758Z,8.6
2023-03-18T15:57:04.763Z,8.6
2023-03-18T16:00:04.886Z,8.6
2023-03-18T16:03:04.793Z,8.6
2023-03-18T16:06:04.776Z,8.5
2023-03-18T16:09:04.775Z,8.5
2023-03-18T16:12:04.784Z,8.5
2023-03-18T16:15:04.801Z,8.5
2023-03-18T16:18:04.812Z,8.5
2023-03-18T16:21:04.796Z,8.5
2023-03-18T16:24:04.802Z,8.5
2023-03-18T16:27:04.802Z,8.5
2023-03-18T16:30:04.842Z,8.5
2023-03-18T16:33:04.840Z,8.5
2023-03-18T16:36:04.899Z,8.5
2023-03-18T16:39:04.823Z,8.5
2023-03-18T16:42:04.826Z,8.4
2023-03-18T16:45:04.844Z,8.4
2023-03-18T16:48:04.917Z,8.4
2023-03-18T16:51:04.839Z,8.4
2023-03-18T16:54:04.859Z,8.3
2023-03-18T16:57:04.846Z,8.3
2023-03-18T17:00:04.863Z,8.3
2023-03-18T17:03:04.852Z,8.3
2023-03-18T17:06:04.858Z,8.3
2023-03-18T17:09:04.862Z,8.4
2023-03-18T17:12:04.900Z,8.3
2023-03-18T17:15:04.884Z,8.4
2023-03-18T17:18:04.871Z,8.4
2023-03-18T17:21:04.876Z,8.3
2023-03-18T17:24:04.879Z,8.2
2023-03-18T17:27:04.883Z,8.3
2023-03-18T17:30:04.921Z,8.2
2023-03-18T17:33:04.921Z,8.1
2023-03-18T17:36:04.982Z,8.1
2023-03-18T17:39:04.904Z,8
2023-03-18T17:42:04.906Z,8
2023-03-18T17:45:04.927Z,7.9
2023-03-18T17:48:04.940Z,8
2023-03-18T17:51:04.936Z,8
2023-03-18T17:54:04.927Z,7.9
2023-03-18T17:57:04.922Z,7.9
2023-03-18T18:00:04.942Z,7.7
2023-03-18T18:03:04.947Z,7.8
2023-03-18T18:06:04.976Z,7.7
2023-03-18T18:09:04.940Z,7.8
2023-03-18T18:12:04.949Z,7.8
2023-03-18T18:15:04.957Z,7.7
2023-03-18T18:18:04.956Z,7.7
2023-03-18T18:21:04.962Z,7.7
2023-03-18T18:24:04.988Z,7.6
2023-03-18T18:27:04.975Z,7.6
2023-03-18T18:30:04.990Z,7.6
2023-03-18T18:33:05.002Z,7.6
2023-03-18T18:36:05.054Z,7.5
2023-03-18T18:39:05.014Z,7.4
2023-03-18T18:42:05.019Z,7.3
2023-03-18T18:45:05.012Z,7.2
2023-03-18T18:48:05.010Z,7.1
2023-03-18T18:51:05.023Z,7
2023-03-18T18:54:05.021Z,6.9
2023-03-18T18:57:05.021Z,6.7
2023-03-18T19:00:05.057Z,6.6
2023-03-18T19:03:05.029Z,6.6
2023-03-18T19:06:05.037Z,6.5
2023-03-18T19:09:05.040Z,6.4
2023-03-18T19:12:05.047Z,6.5
2023-03-18T19:15:05.044Z,6.6
2023-03-18T19:18:05.073Z,6.6
2023-03-18T19:21:05.062Z,6.4
2023-03-18T19:24:05.064Z,6.4
2023-03-18T19:27:05.066Z,6.6
2023-03-18T19:30:05.076Z,6.7
2023-03-18T19:33:05.136Z,6.7
2023-03-18T19:36:05.129Z,6.7
2023-03-18T19:39:05.083Z,6.5
2023-03-18T19:42:05.082Z,6.7
2023-03-18T19:45:05.084Z,6.8
2023-03-18T19:48:05.091Z,6.8
2023-03-18T19:51:05.090Z,6.8
2023-03-18T19:54:05.124Z,6.9
2023-03-18T19:57:05.127Z,6.9
2023-03-18T20:00:05.127Z,6.9
2023-03-18T20:03:05.109Z,6.9
2023-03-18T20:06:05.115Z,7
2023-03-18T20:09:05.124Z,7
2023-03-18T20:12:05.161Z,7
2023-03-18T20:15:05.130Z,7
2023-03-18T20:18:05.137Z,7
2023-03-18T20:21:05.143Z,7
2023-03-18T20:24:05.343Z,7
2023-03-18T20:27:05.151Z,7
2023-03-18T20:30:05.175Z,6.9
2023-03-18T20:33:05.339Z,6.8
2023-03-18T20:36:05.209Z,6.7
2023-03-18T20:39:05.168Z,6.7
2023-03-18T20:42:05.268Z,6.7
2023-03-18T20:45:05.192Z,6.8
2023-03-18T20:48:05.203Z,6.8
2023-03-18T20:51:05.187Z,6.9
2023-03-18T20:54:05.191Z,6.9
2023-03-18T20:57:05.190Z,7
2023-03-18T21:00:05.192Z,7
2023-03-18T21:03:05.197Z,7
2023-03-18T21:06:05.231Z,7
2023-03-18T21:09:05.209Z,7
2023-03-18T21:12:05.222Z,7.1
2023-03-18T21:15:05.218Z,7.2
2023-03-18T21:18:05.219Z,7.3
2023-03-18T21:21:05.225Z,7.3
2023-03-18T21:24:05.249Z,7.4
2023-03-18T21:27:05.897Z,7.4
2023-03-18T21:30:05.236Z,7.4
2023-03-18T21:33:05.309Z,7.4
2023-03-18T21:36:05.248Z,7.5
2023-03-18T21:39:05.239Z,7.5
2023-03-18T21:42:05.274Z,7.5
2023-03-18T21:45:05.247Z,7.6
2023-03-18T21:48:05.259Z,7.7
2023-03-18T21:51:05.258Z,7.7
2023-03-18T21:54:05.270Z,7.7
2023-03-18T21:57:05.265Z,7.7
2023-03-18T22:00:05.297Z,7.7
2023-03-18T22:03:05.270Z,7.7
2023-03-18T22:06:05.275Z,7.7
2023-03-18T22:09:05.284Z,7.8
2023-03-18T22:12:05.286Z,7.7
2023-03-18T22:15:05.296Z,7.7
2023-03-18T22:18:05.318Z,7.7
2023-03-18T22:21:05.298Z,7.7
2023-03-18T22:24:05.303Z,7.7
2023-03-18T22:27:05.306Z,7.6
2023-03-18T22:30:05.310Z,7.6
2023-03-18T22:33:05.418Z,7.6
2023-03-18T22:36:05.350Z,7.6
2023-03-18T22:39:05.315Z,7.5
2023-03-18T22:42:05.320Z,7.5
2023-03-18T22:45:05.323Z,7.5
2023-03-18T22:48:05.333Z,7.5
2023-03-18T22:51:05.333Z,7.4
2023-03-18T22:54:05.359Z,7.4
2023-03-18T22:57:05.383Z,7.4
2023-03-18T23:00:05.415Z,7.5
2023-03-18T23:03:05.489Z,7.6
2023-03-18T23:06:05.421Z,7.6
2023-03-18T23:09:05.423Z,7.7
2023-03-18T23:12:05.448Z,7.7
2023-03-18T23:15:05.421Z,7.8
2023-03-18T23:18:05.421Z,7.8
2023-03-18T23:21:05.449Z,7.9
2023-03-18T23:24:05.423Z,7.9
2023-03-18T23:27:05.422Z,7.9
2023-03-18T23:30:05.458Z,7.9
2023-03-18T23:33:05.452Z,8
2023-03-18T23:36:05.502Z,8
2023-03-18T23:39:05.426Z,8
2023-03-18T23:42:05.439Z,8.1
2023-03-18T23:45:05.465Z,8.1
2023-03-18T23:48:05.467Z,8.1
2023-03-18T23:51:05.430Z,8.1
2023-03-18T23:54:05.430Z,8.2
2023-03-18T23:57:05.432Z,8.2
